Strawberry Point, IA (52076)

5:05 PM CDT on May 05, 2015 (GMT -0500)
Volga | | Change Station
CLOSE
Current Station
Personal Weather Station
Location: Volga, IA
Elevation: 794 ft
Nearby Weather Stations

Elev 794 ft 42.80 °N, 91.54 °W | Updated 4 minutes ago

Overcast
Overcast
57.5 °F
Feels Like 57.5 °F
N
1.0
Wind Variable Wind from NNE
Gusts 5.0 mph

Today
High -- | Low -- °F
--% Chance of Precip.
Yesterday
High -- | Low -- °F
Precip. -- in
5:55 AM 8:10 PM
Full, 97% visible
Pressure 30.14 in
Visibility 8.0 miles
Clouds Overcast 600 ft
Dew Point 56 °F
Humidity 93%
Rainfall 0.02 in
Snow Depth Not available.
UV 1 out of 12
Pollen 5.00 out of 12
Air Quality Not available.
Flu Activity Local Activity
METAR KOLZ 052155Z AUTO 09012KT 8SM OVC006 14/14 A3014 RMK AO2

More Conditions Fewer Conditions

Pressure 30.14 in
Visibility 8.0 miles
Clouds Overcast 600 ft
Dew Point 56 °F
Humidity 93%
Rainfall 0.02 in
Snow Depth Not available.
UV 1 out of 12
Pollen 5.00 out of 12
Air Quality Not available.
Flu Activity Local Activity
METAR KOLZ 052155Z AUTO 09012KT 8SM OVC006 14/14 A3014 RMK AO2

More Conditions Fewer Conditions

10-Day Weather Forecast

Almanac

Astronomy

May. 05, 2015 Rise Set
Actual Time
Civil Twilight
Nautical Twilight
Astronomical Twilight
Moon
Length of Visible Light
Length of Day
Tomorrow will be .
, % of the Moon is Illuminated

Today's Extremes

State Highs State Lows

Community

WunderPhotos

Upload Photos

1,818,990 photos uploaded!

WunderBlogs® & News

Nearby

Air Quality

  Air Quality AQ Index Pollutant
Not available.

Snow Depth

Station Depth Elevation

Earthquake Activity

City Distance Mag. Time & Date
Minimum magnitude displayed is 2.5.

Coastal Water Temperatures

Place Temperature

Stations

Nearby Weather Stations

Station Location Temp. Windchill Dew Point Humidity Wind Precip. Elev Updated Type